Time;durP1;ratioP1;P1;durP2;ratioP2;P2;SDS_P1;SDS_P2;PMS_P1;PMS_P2;Temp;Humidity;BMP_temperature;BMP_pressure;BME280_temperature;BME280_humidity;BME280_pressure;Samples;Min_cycle;Max_cycle;Signal;HPM_P1;HPM_P2
2022/10/25 00:01:45;;;;;;;15.15;4.82;;;;;;;12.89;100.00;101067.63;4986658;28;20461;-66
2022/10/25 00:04:11;;;;;;;16.35;5.50;;;;;;;12.86;100.00;101079.13;4969530;28;20065;-66
2022/10/25 00:06:36;;;;;;;17.40;5.30;;;;;;;12.91;100.00;101078.41;4990442;28;20153;-66
2022/10/25 00:09:02;;;;;;;18.58;5.70;;;;;;;12.94;100.00;101078.78;4986989;28;20108;-66
2022/10/25 00:11:29;;;;;;;17.73;6.25;;;;;;;12.99;100.00;101070.63;4988777;28;20146;-66
2022/10/25 00:13:56;;;;;;;23.40;5.80;;;;;;;13.01;100.00;101072.28;4987658;28;20030;-65
2022/10/25 00:16:25;;;;;;;13.80;5.57;;;;;;;13.02;100.00;101080.31;4987018;28;20041;-66
2022/10/25 00:18:51;;;;;;;12.05;5.00;;;;;;;13.04;100.00;101088.38;4988378;28;20414;-66
2022/10/25 00:21:17;;;;;;;16.35;4.60;;;;;;;13.02;100.00;101088.59;5003378;28;20065;-66
2022/10/25 00:23:42;;;;;;;17.67;5.07;;;;;;;13.03;100.00;101081.16;4987974;28;20058;-66
2022/10/25 00:26:10;;;;;;;19.95;5.35;;;;;;;13.03;100.00;101087.53;4987606;28;20034;-66
2022/10/25 00:28:36;;;;;;;17.75;6.05;;;;;;;13.04;100.00;101089.19;4988548;28;20156;-66
2022/10/25 00:31:04;;;;;;;18.70;5.55;;;;;;;13.04;100.00;101091.97;4985428;28;20070;-66
2022/10/25 00:33:31;;;;;;;23.20;6.05;;;;;;;13.03;100.00;101094.94;4981636;28;20088;-66
2022/10/25 00:36:03;;;;;;;17.08;5.05;;;;;;;13.08;100.00;101101.44;4974125;28;20460;-66
2022/10/25 00:38:29;;;;;;;15.80;5.80;;;;;;;13.08;100.00;101097.84;4968686;28;20034;-66
2022/10/25 00:40:54;;;;;;;16.13;4.85;;;;;;;13.12;100.00;101096.25;4981658;28;20092;-66
2022/10/25 00:43:43;;;;;;;20.42;5.28;;;;;;;13.13;100.00;101100.72;4988300;28;20026;-66
2022/10/25 00:46:30;;;;;;;20.08;5.68;;;;;;;13.15;100.00;101099.38;4987284;28;20117;-66
2022/10/25 00:49:08;;;;;;;20.30;5.55;;;;;;;13.18;100.00;101106.34;4987158;28;20049;-66
2022/10/25 00:51:48;;;;;;;16.70;5.82;;;;;;;13.20;100.00;101098.66;4986234;28;20096;-65
2022/10/25 00:54:17;;;;;;;19.42;5.28;;;;;;;13.21;100.00;101101.19;4984713;28;20034;-66
2022/10/25 00:56:47;;;;;;;18.92;5.05;;;;;;;13.23;100.00;101109.25;4988085;28;20023;-65
2022/10/25 00:59:18;;;;;;;21.83;4.97;;;;;;;13.27;100.00;101104.91;4987779;28;20133;-66
2022/10/25 01:01:43;;;;;;;23.83;4.60;;;;;;;13.29;100.00;101102.75;4986479;28;20107;-66
2022/10/25 01:04:12;;;;;;;18.85;4.63;;;;;;;13.35;100.00;101099.03;4988060;28;20131;-66
2022/10/25 01:06:45;;;;;;;23.17;4.80;;;;;;;13.36;100.00;101103.44;4987601;28;20038;-66
2022/10/25 01:09:14;;;;;;;21.20;5.35;;;;;;;13.38;100.00;101106.81;4986108;28;20042;-66
2022/10/25 01:14:19;;;;;;;18.43;5.00;;;;;;;13.43;100.00;101109.69;5012362;28;20515;-66
2022/10/25 01:16:55;;;;;;;25.30;5.05;;;;;;;13.47;100.00;101110.84;5006627;28;20057;-66
2022/10/25 01:19:56;;;;;;;15.27;5.18;;;;;;;13.60;100.00;101104.25;5005422;28;20825;-66
2022/10/25 01:23:02;;;;;;;14.48;4.72;;;;;;;13.58;100.00;101105.53;5006481;28;20477;-66
2022/10/25 01:25:59;;;;;;;17.85;4.55;;;;;;;13.54;100.00;101110.75;4987863;28;20546;-66
2022/10/25 01:28:49;;;;;;;26.73;6.22;;;;;;;13.54;100.00;101110.75;5006204;28;20031;-66
2022/10/25 01:31:44;;;;;;;19.08;5.00;;;;;;;13.50;100.00;101115.06;5006720;28;20062;-66
2022/10/25 01:34:22;;;;;;;18.35;4.80;;;;;;;13.49;100.00;101119.75;5006164;28;20022;-66
2022/10/25 01:37:00;;;;;;;18.85;4.97;;;;;;;13.46;100.00;101120.22;5007254;28;20174;-65
2022/10/25 01:39:32;;;;;;;23.00;6.38;;;;;;;13.45;100.00;101124.06;5004589;28;20427;-66
2022/10/25 01:42:07;;;;;;;22.10;5.63;;;;;;;13.43;100.00;101126.25;5006371;28;20845;-66
2022/10/25 01:44:43;;;;;;;17.70;4.63;;;;;;;13.48;100.00;101134.63;5006140;28;20405;-66
2022/10/25 01:47:23;;;;;;;24.70;5.38;;;;;;;13.44;100.00;101127.06;5005862;28;20777;-65
2022/10/25 01:50:03;;;;;;;21.15;5.13;;;;;;;13.46;100.00;101131.25;5007018;28;20026;-66
2022/10/25 01:52:29;;;;;;;14.07;5.32;;;;;;;13.45;100.00;101124.06;5005415;28;20037;-66
2022/10/25 01:54:54;;;;;;;23.70;4.78;;;;;;;13.45;100.00;101134.28;5002382;28;20026;-66
2022/10/25 01:57:36;;;;;;;21.48;4.65;;;;;;;13.43;100.00;101131.75;5004650;28;20484;-66
2022/10/25 02:00:09;;;;;;;18.77;4.13;;;;;;;13.40;100.00;101125.88;5004949;28;20610;-66
2022/10/25 02:02:53;;;;;;;20.70;5.15;;;;;;;13.45;100.00;101137.03;5005550;28;20034;-66
2022/10/25 02:05:52;;;;;;;20.17;4.43;;;;;;;13.40;100.00;101131.41;5006917;28;20034;-66
2022/10/25 02:08:50;;;;;;;20.00;4.63;;;;;;;13.39;100.00;101129.72;5005676;28;20045;-66
2022/10/25 02:11:24;;;;;;;17.85;4.55;;;;;;;13.36;100.00;101138.47;4999272;28;20038;-66
2022/10/25 02:14:14;;;;;;;19.58;5.00;;;;;;;13.41;100.00;101150.47;5007678;28;20049;-66
2022/10/25 02:16:45;;;;;;;18.92;5.05;;;;;;;13.39;100.00;101147.13;5009563;28;20032;-66
2022/10/25 02:19:15;;;;;;;14.90;5.20;;;;;;;13.37;100.00;101137.38;5009459;28;20152;-66
2022/10/25 02:21:43;;;;;;;17.52;4.45;;;;;;;13.36;100.00;101147.59;5008447;28;20053;-66
2022/10/25 02:24:16;;;;;;;19.92;4.63;;;;;;;13.35;100.00;101150.59;5008797;28;20377;-66
2022/10/25 02:26:45;;;;;;;20.25;5.05;;;;;;;13.36;100.00;101149.50;5009902;28;20026;-66
2022/10/25 02:29:13;;;;;;;15.05;4.18;;;;;;;13.32;100.00;101140.03;5008199;28;20044;-66
2022/10/25 02:31:38;;;;;;;20.25;4.55;;;;;;;13.26;100.00;101146.53;5009547;28;20285;-66
2022/10/25 02:34:04;;;;;;;19.63;4.72;;;;;;;13.23;100.00;101161.66;5009529;28;20527;-66
2022/10/25 02:36:29;;;;;;;12.88;3.55;;;;;;;13.23;100.00;101156.13;5009774;28;20057;-66
2022/10/25 02:38:56;;;;;;;17.33;4.65;;;;;;;13.20;100.00;101154.66;5005857;28;20071;-66
2022/10/25 02:41:23;;;;;;;16.35;4.07;;;;;;;13.20;100.00;101159.34;5006647;28;20030;-66
2022/10/25 02:43:48;;;;;;;14.98;3.90;;;;;;;13.17;100.00;101154.28;5009916;28;20037;-66
2022/10/25 02:46:16;;;;;;;15.75;4.30;;;;;;;13.15;100.00;101157.28;5009358;28;20022;-66
2022/10/25 02:48:42;;;;;;;18.38;4.45;;;;;;;13.15;100.00;101150.94;5008892;28;20520;-66
2022/10/25 02:51:09;;;;;;;15.98;4.85;;;;;;;13.15;100.00;101156.44;5008646;28;20033;-66
2022/10/25 02:53:34;;;;;;;16.52;4.32;;;;;;;13.09;100.00;101162.94;5008947;28;20030;-66
2022/10/25 02:56:01;;;;;;;15.90;4.28;;;;;;;13.07;100.00;101163.16;5008997;28;20444;-66
2022/10/25 02:58:30;;;;;;;19.40;5.03;;;;;;;13.11;100.00;101172.63;5008809;28;20041;-66
2022/10/25 03:00:57;;;;;;;14.80;5.22;;;;;;;13.03;100.00;101163.88;5008340;28;20018;-66
2022/10/25 03:03:22;;;;;;;19.40;4.88;;;;;;;12.97;100.00;101161.00;5009408;28;20029;-66
2022/10/25 03:05:47;;;;;;;21.17;5.30;;;;;;;12.98;100.00;101161.84;5008003;28;20045;-65
2022/10/25 03:08:12;;;;;;;18.17;4.90;;;;;;;12.94;100.00;101163.41;5006923;28;20042;-65
2022/10/25 03:10:38;;;;;;;17.65;5.32;;;;;;;12.95;100.00;101162.31;5006904;28;20038;-66
2022/10/25 03:13:03;;;;;;;20.88;4.75;;;;;;;12.90;100.00;101163.03;5008363;28;20042;-66
2022/10/25 03:15:28;;;;;;;25.45;5.60;;;;;;;12.90;100.00;101171.31;5007705;28;20431;-66
2022/10/25 03:17:53;;;;;;;14.88;5.15;;;;;;;12.83;100.00;101167.84;5007876;28;20563;-66
2022/10/25 03:20:19;;;;;;;14.45;5.20;;;;;;;12.86;100.00;101175.59;5008696;28;20086;-66
2022/10/25 03:22:44;;;;;;;17.92;4.68;;;;;;;12.79;100.00;101177.66;5008909;28;20050;-66
2022/10/25 03:25:09;;;;;;;19.30;4.60;;;;;;;12.76;100.00;101178.13;5008699;28;20029;-66
2022/10/25 03:27:35;;;;;;;16.13;4.82;;;;;;;12.72;100.00;101185.16;5008146;28;20025;-66
2022/10/25 03:30:00;;;;;;;16.75;5.07;;;;;;;12.75;100.00;101194.91;5008141;28;20037;-66
2022/10/25 03:32:25;;;;;;;17.40;4.97;;;;;;;12.70;100.00;101199.19;5007897;28;20022;-66
2022/10/25 03:34:50;;;;;;;14.85;4.90;;;;;;;12.69;100.00;101196.69;5006049;28;20037;-66
2022/10/25 03:37:16;;;;;;;16.05;5.00;;;;;;;12.68;100.00;101197.78;5008875;28;20042;-66
2022/10/25 03:39:41;;;;;;;17.40;4.72;;;;;;;12.64;100.00;101202.06;5006749;28;20430;-66
2022/10/25 03:42:07;;;;;;;18.55;5.00;;;;;;;12.62;100.00;101205.06;5008565;28;20408;-66
2022/10/25 03:44:32;;;;;;;15.55;4.38;;;;;;;12.59;100.00;101205.53;5008275;28;20380;-66
2022/10/25 03:46:57;;;;;;;14.63;4.45;;;;;;;12.56;100.00;101213.41;5006068;28;20045;-66
2022/10/25 03:49:22;;;;;;;12.02;4.38;;;;;;;12.64;100.00;101218.59;5007213;28;20037;-66
2022/10/25 03:51:48;;;;;;;22.17;4.90;;;;;;;12.54;100.00;101210.91;5005287;28;20042;-66
2022/10/25 03:54:13;;;;;;;17.30;4.90;;;;;;;12.54;100.00;101212.81;5007432;28;20039;-66
2022/10/25 03:56:38;;;;;;;15.77;4.60;;;;;;;12.50;100.00;101222.63;4996540;28;20068;-66
2022/10/25 03:59:03;;;;;;;15.55;5.30;;;;;;;12.50;100.00;101219.88;4988550;28;20038;-66
2022/10/25 04:01:29;;;;;;;14.35;4.88;;;;;;;12.50;100.00;101225.38;4989598;28;20041;-66
2022/10/25 04:03:54;;;;;;;16.45;4.65;;;;;;;12.50;100.00;101230.88;5007907;28;20045;-66
2022/10/25 04:06:19;;;;;;;16.83;4.72;;;;;;;12.50;100.00;101228.13;5006402;28;20443;-66
2022/10/25 04:08:44;;;;;;;16.88;4.35;;;;;;;12.53;100.00;101224.91;5007598;28;20038;-66
2022/10/25 04:11:10;;;;;;;16.25;4.25;;;;;;;12.52;100.00;101228.72;5007391;28;20030;-66
2022/10/25 04:13:35;;;;;;;19.45;5.70;;;;;;;12.50;100.00;101223.47;5006708;28;20038;-66
2022/10/25 04:16:08;;;;;;;15.48;5.10;;;;;;;12.44;100.00;101224.41;5007001;28;20056;-66
2022/10/25 04:18:33;;;;;;;12.05;4.20;;;;;;;12.39;100.00;101229.78;5007337;28;20117;-65
2022/10/25 04:20:59;;;;;;;16.50;4.80;;;;;;;12.38;100.00;101234.44;5007092;28;20037;-66
2022/10/25 04:23:24;;;;;;;17.33;4.80;;;;;;;12.36;100.00;101239.31;5005947;28;20655;-66
2022/10/25 04:25:49;;;;;;;17.75;5.53;;;;;;;12.33;100.00;101244.47;5006077;28;20107;-66
2022/10/25 04:28:15;;;;;;;14.50;4.82;;;;;;;12.28;100.00;101242.41;5007596;28;20518;-66
2022/10/25 04:30:41;;;;;;;17.52;5.55;;;;;;;12.29;100.00;101246.00;5006507;28;20036;-66
2022/10/25 04:33:06;;;;;;;17.25;5.15;;;;;;;12.31;100.00;101246.59;5005356;28;20034;-66
2022/10/25 04:35:32;;;;;;;11.60;4.68;;;;;;;12.29;100.00;101244.09;5004353;28;20041;-66
2022/10/25 04:37:57;;;;;;;18.23;4.93;;;;;;;12.31;100.00;101243.84;5007082;28;20040;-66
2022/10/25 04:40:23;;;;;;;18.30;5.50;;;;;;;12.29;100.00;101252.34;5007393;28;20045;-66
2022/10/25 04:42:49;;;;;;;17.80;5.68;;;;;;;12.23;100.00;101247.78;5005274;28;20468;-66
2022/10/25 04:45:14;;;;;;;20.75;5.25;;;;;;;12.27;100.00;101259.19;5004487;28;20034;-66
2022/10/25 04:47:39;;;;;;;15.98;5.65;;;;;;;12.25;100.00;101256.66;5006250;28;20029;-66
2022/10/25 04:50:05;;;;;;;16.52;4.65;;;;;;;12.27;100.00;101256.44;5005683;28;20120;-66
2022/10/25 04:52:30;;;;;;;12.80;5.22;;;;;;;12.21;100.00;101249.91;5006984;28;20034;-66
2022/10/25 04:54:56;;;;;;;14.90;4.80;;;;;;;12.19;100.00;101255.66;5006335;28;20037;-66
2022/10/25 04:57:22;;;;;;;17.40;5.30;;;;;;;12.15;100.00;101254.44;5006840;28;20034;-66
2022/10/25 04:59:47;;;;;;;13.98;5.45;;;;;;;12.12;100.00;101257.66;5007574;28;20487;-66
2022/10/25 05:02:13;;;;;;;18.30;6.10;;;;;;;12.13;100.00;101251.09;5004364;28;20377;-66
2022/10/25 05:04:38;;;;;;;17.17;5.45;;;;;;;12.09;100.00;101260.03;5005863;28;20128;-66
2022/10/25 05:07:04;;;;;;;17.08;5.95;;;;;;;12.07;100.00;101259.44;5006270;28;20095;-65
2022/10/25 05:09:29;;;;;;;17.20;6.05;;;;;;;12.04;100.00;101257.13;5014002;28;20034;-66
2022/10/25 05:11:54;;;;;;;17.13;6.43;;;;;;;12.04;100.00;101262.63;5006845;28;20205;-66
2022/10/25 05:14:20;;;;;;;15.98;6.18;;;;;;;11.99;100.00;101256.97;5005721;28;20169;-66
2022/10/25 05:16:45;;;;;;;18.67;6.35;;;;;;;11.99;100.00;101268.00;5006001;28;20068;-66
2022/10/25 05:19:10;;;;;;;15.43;6.22;;;;;;;12.00;100.00;101269.66;5005566;28;20026;-66
2022/10/25 05:21:35;;;;;;;19.05;6.90;;;;;;;12.02;100.00;101281.31;5006625;28;20038;-66
2022/10/25 05:24:01;;;;;;;20.80;7.10;;;;;;;12.03;100.00;101281.06;5005120;28;20026;-66
2022/10/25 05:26:27;;;;;;;20.33;7.00;;;;;;;11.99;100.00;101285.34;5006695;28;20383;-66
2022/10/25 05:28:53;;;;;;;19.98;6.07;;;;;;;12.00;100.00;101286.19;5004290;28;20517;-66
2022/10/25 05:31:24;;;;;;;16.63;6.22;;;;;;;12.00;100.00;101286.19;5004981;28;20053;-66
2022/10/25 05:33:51;;;;;;;19.77;6.25;;;;;;;12.00;100.00;101291.69;5006346;28;20026;-66
2022/10/25 05:36:18;;;;;;;16.00;5.82;;;;;;;11.99;100.00;101290.00;5006184;28;20037;-66
2022/10/25 05:38:44;;;;;;;18.10;6.70;;;;;;;12.03;100.00;101286.56;5005342;28;20080;-66
2022/10/25 05:41:11;;;;;;;17.55;7.57;;;;;;;12.02;100.00;101286.81;5006006;28;20022;-66
2022/10/25 05:43:36;;;;;;;17.27;6.50;;;;;;;11.99;100.00;101285.34;5007940;28;20092;-66
2022/10/25 05:46:05;;;;;;;18.92;6.72;;;;;;;12.02;100.00;101297.84;5006980;28;20296;-66
2022/10/25 05:48:31;;;;;;;15.35;5.65;;;;;;;11.96;100.00;101291.31;5009069;28;20373;-66
2022/10/25 05:51:25;;;;;;;18.65;5.88;;;;;;;11.93;100.00;101298.13;5008724;28;20476;-66
2022/10/25 05:53:52;;;;;;;18.83;5.90;;;;;;;11.92;100.00;101303.88;5009741;28;20061;-66
2022/10/25 05:56:20;;;;;;;16.30;5.57;;;;;;;11.95;100.00;101300.63;5008043;28;20014;-66
2022/10/25 05:58:45;;;;;;;18.95;5.65;;;;;;;11.97;100.00;101308.69;5010676;28;20029;-66
2022/10/25 06:01:13;;;;;;;14.82;5.43;;;;;;;11.95;100.00;101312.47;5009350;28;20026;-66
2022/10/25 06:03:38;;;;;;;23.00;6.55;;;;;;;12.06;100.00;101321.06;5009196;28;20456;-66
2022/10/25 06:06:06;;;;;;;21.80;5.80;;;;;;;12.02;100.00;101322.59;5008829;28;20034;-66
2022/10/25 06:08:33;;;;;;;15.68;5.88;;;;;;;12.03;100.00;101319.63;5009040;28;20022;-66
2022/10/25 06:11:12;;;;;;;17.05;5.90;;;;;;;12.03;100.00;101316.88;5009730;28;20544;-66
2022/10/25 06:13:38;;;;;;;17.88;5.85;;;;;;;12.04;100.00;101325.97;5009211;28;20539;-66
2022/10/25 06:16:05;;;;;;;21.65;7.43;;;;;;;12.02;100.00;101333.63;5008873;28;20042;-65
2022/10/25 06:18:32;;;;;;;18.10;6.77;;;;;;;12.00;100.00;101330.22;5008403;28;20041;-67
2022/10/25 06:21:01;;;;;;;19.52;8.00;;;;;;;12.00;100.00;101333.81;5009715;28;20030;-66
2022/10/25 06:23:27;;;;;;;19.75;8.18;;;;;;;11.99;100.00;101339.56;5009538;28;20022;-67
2022/10/25 06:25:58;;;;;;;23.80;8.63;;;;;;;12.05;100.00;101341.41;5008224;28;20103;-66
2022/10/25 06:28:23;;;;;;;19.73;8.43;;;;;;;11.98;100.00;101343.41;5008434;28;20074;-66
2022/10/25 06:30:48;;;;;;;21.92;9.32;;;;;;;12.00;100.00;101352.25;5008571;28;20072;-66
2022/10/25 06:33:13;;;;;;;22.48;9.15;;;;;;;12.07;100.00;101350.28;5009977;28;20369;-66
2022/10/25 06:35:39;;;;;;;22.30;9.55;;;;;;;11.98;100.00;101348.91;5008359;28;20048;-66
2022/10/25 06:38:04;;;;;;;24.85;10.63;;;;;;;11.96;100.00;101351.84;5007056;28;20060;-66
2022/10/25 06:40:29;;;;;;;24.52;9.95;;;;;;;11.98;100.00;101359.91;4997739;28;20034;-66
2022/10/25 06:42:55;;;;;;;23.90;10.47;;;;;;;11.94;100.00;101360.34;5024237;28;20117;-66
2022/10/25 06:45:22;;;;;;;25.95;10.85;;;;;;;11.96;100.00;101362.88;5023572;28;20277;-66
2022/10/25 06:47:47;;;;;;;22.65;10.90;;;;;;;11.98;100.00;101358.00;5009788;28;20033;-67
2022/10/25 06:50:12;;;;;;;27.40;11.80;;;;;;;12.03;100.00;101369.16;5009017;28;20038;-66
2022/10/25 06:52:38;;;;;;;24.52;11.05;;;;;;;12.05;100.00;101374.44;5008615;28;20053;-66
2022/10/25 06:55:03;;;;;;;25.27;10.98;;;;;;;12.06;100.00;101363.19;5007752;28;20049;-66
2022/10/25 06:57:28;;;;;;;27.88;11.20;;;;;;;12.04;100.00;101362.59;5007487;28;20034;-66
2022/10/25 06:59:54;;;;;;;26.48;11.60;;;;;;;12.10;100.00;101375.44;5008847;28;20029;-66
2022/10/25 07:02:19;;;;;;;24.65;11.88;;;;;;;12.16;100.00;101374.53;5008167;28;20034;-66
2022/10/25 07:04:44;;;;;;;25.90;11.63;;;;;;;12.10;100.00;101377.34;5009018;28;20042;-66
2022/10/25 07:07:13;;;;;;;32.05;12.82;;;;;;;12.11;100.00;101379.03;5009172;28;20038;-66
2022/10/25 07:09:38;;;;;;;29.08;12.13;;;;;;;12.15;100.00;101383.00;5009549;28;20033;-66
2022/10/25 07:12:04;;;;;;;31.40;12.57;;;;;;;12.16;100.00;101384.69;5006897;28;20044;-67
2022/10/25 07:14:29;;;;;;;31.80;12.30;;;;;;;12.22;100.00;101385.72;5007967;28;20101;-66
2022/10/25 07:16:56;;;;;;;28.15;11.93;;;;;;;12.27;100.00;101400.47;5008042;28;20028;-66
2022/10/25 07:19:23;;;;;;;26.05;11.77;;;;;;;12.28;100.00;101399.41;5004412;28;20027;-66
2022/10/25 07:21:49;;;;;;;35.47;12.55;;;;;;;12.30;100.00;101396.41;5003587;28;20018;-67
2022/10/25 07:24:14;;;;;;;30.08;12.98;;;;;;;12.30;100.00;101400.00;5008575;28;20024;-67
2022/10/25 07:26:39;;;;;;;31.83;13.13;;;;;;;12.35;100.00;101400.16;5007574;28;20036;-66
2022/10/25 07:29:05;;;;;;;30.88;12.73;;;;;;;12.40;100.00;101399.47;5008297;28;20201;-67
2022/10/25 07:31:36;;;;;;;31.05;13.35;;;;;;;12.49;100.00;101406.38;5005309;28;20136;-67
2022/10/25 07:34:03;;;;;;;30.33;14.80;;;;;;;12.56;100.00;101411.78;5008033;28;20029;-66
2022/10/25 07:36:29;;;;;;;33.17;13.45;;;;;;;12.62;100.00;101416.38;5007836;28;20129;-67
2022/10/25 07:38:55;;;;;;;30.80;14.48;;;;;;;12.68;100.00;101421.00;5007666;28;20715;-67
2022/10/25 07:41:21;;;;;;;33.65;13.45;;;;;;;12.79;100.00;101427.66;5008328;28;20053;-66
2022/10/25 07:43:46;;;;;;;37.20;14.70;;;;;;;12.84;100.00;101423.13;5007024;28;20116;-67
2022/10/25 07:46:12;;;;;;;31.13;13.52;;;;;;;12.86;100.00;101422.88;5006791;28;20486;-67
2022/10/25 07:48:37;;;;;;;31.48;14.45;;;;;;;12.87;100.00;101421.78;5008147;28;20042;-66
2022/10/25 07:51:09;;;;;;;29.45;13.93;;;;;;;12.98;100.00;101429.31;5008270;28;20030;-66
2022/10/25 07:53:34;;;;;;;31.27;14.70;;;;;;;12.97;100.00;101431.19;5006537;28;20033;-66
2022/10/25 07:56:00;;;;;;;29.55;15.32;;;;;;;13.10;100.00;101432.09;5007771;28;20105;-66
2022/10/25 07:58:26;;;;;;;32.22;14.30;;;;;;;13.12;100.00;101436.31;5005096;28;20036;-66
2022/10/25 08:00:51;;;;;;;32.70;15.63;;;;;;;13.21;100.00;101434.94;5005739;28;20028;-66
2022/10/25 08:03:17;;;;;;;33.15;16.35;;;;;;;13.33;100.00;101439.66;5000119;28;20114;-66
2022/10/25 08:05:47;;;;;;;34.50;15.82;;;;;;;13.43;100.00;101434.41;5001108;28;20029;-66
2022/10/25 08:08:13;;;;;;;32.38;14.45;;;;;;;13.50;100.00;101436.00;5003483;28;20037;-66
2022/10/25 08:10:40;;;;;;;34.20;14.13;;;;;;;13.60;100.00;101442.88;5007799;28;20034;-66
2022/10/25 08:13:06;;;;;;;28.83;14.55;;;;;;;13.66;100.00;101444.69;5005719;28;20042;-66
2022/10/25 08:15:31;;;;;;;29.15;15.27;;;;;;;13.66;100.00;101444.69;5005831;28;20037;-66
2022/10/25 08:18:00;;;;;;;29.42;15.50;;;;;;;13.71;100.00;101453.94;4996413;28;20053;-66
2022/10/25 08:20:27;;;;;;;35.22;16.30;;;;;;;13.77;100.00;101452.13;4995725;28;20049;-66
2022/10/25 08:22:57;;;;;;;32.35;15.63;;;;;;;13.84;100.00;101449.25;5004395;28;20507;-66
2022/10/25 08:25:22;;;;;;;39.22;18.73;;;;;;;14.11;100.00;101449.66;4999587;28;20037;-66
2022/10/25 08:27:47;;;;;;;33.72;16.20;;;;;;;14.41;99.95;101447.63;5004295;28;20041;-66
2022/10/25 08:30:13;;;;;;;31.83;15.82;;;;;;;14.50;99.19;101437.91;5005308;28;20030;-66
2022/10/25 08:32:38;;;;;;;29.83;15.27;;;;;;;15.35;95.76;101443.78;5003481;28;20026;-66
2022/10/25 08:35:04;;;;;;;33.80;15.73;;;;;;;15.52;91.91;101451.03;5004609;28;20042;-66
2022/10/25 08:37:29;;;;;;;28.08;14.95;;;;;;;15.80;90.10;101443.78;5006466;28;20131;-66
2022/10/25 08:39:54;;;;;;;28.77;14.93;;;;;;;15.55;91.19;101447.75;5005058;28;20464;-66
2022/10/25 08:42:49;;;;;;;26.75;13.68;;;;;;;15.26;93.35;101449.72;5005730;28;20063;-66
2022/10/25 08:45:21;;;;;;;27.90;14.32;;;;;;;16.30;89.38;101449.31;4996798;28;20404;-66
2022/10/25 08:47:52;;;;;;;28.42;12.15;;;;;;;16.80;84.77;101448.38;5006085;28;20357;-66
2022/10/25 08:50:37;;;;;;;27.90;12.43;;;;;;;16.74;84.31;101456.91;5006873;28;20095;-66
2022/10/25 08:53:07;;;;;;;26.20;14.90;;;;;;;16.03;86.17;101460.25;5000017;28;20064;-66
2022/10/25 08:55:41;;;;;;;25.05;12.52;;;;;;;15.60;89.32;101463.63;5004226;28;20491;-66
2022/10/25 08:58:14;;;;;;;30.42;13.18;;;;;;;15.33;91.54;101466.19;5007388;28;20096;-66
2022/10/25 09:00:41;;;;;;;26.45;12.77;;;;;;;15.04;93.24;101468.91;5006638;28;20034;-66
2022/10/25 09:03:23;;;;;;;26.52;12.65;;;;;;;14.99;94.80;101465.22;5004038;28;20042;-66
2022/10/25 09:06:03;;;;;;;24.63;11.40;;;;;;;15.24;93.08;101470.41;4993634;28;20036;-66
2022/10/25 09:08:53;;;;;;;24.60;12.27;;;;;;;15.41;91.51;101467.69;5003807;28;20037;-66
2022/10/25 09:11:30;;;;;;;28.38;12.23;;;;;;;15.39;91.77;101481.78;5004474;28;20084;-66
2022/10/25 09:14:07;;;;;;;29.02;12.05;;;;;;;15.86;90.18;101478.78;5001544;28;20157;-67
2022/10/25 09:16:55;;;;;;;31.00;13.10;;;;;;;16.29;87.33;101474.53;4998244;28;20041;-66
2022/10/25 09:19:32;;;;;;;26.50;11.48;;;;;;;16.78;83.71;101475.56;5005114;28;20029;-67
2022/10/25 09:22:04;;;;;;;29.02;11.52;;;;;;;17.86;80.34;101485.97;5003886;28;20042;-67
2022/10/25 09:24:42;;;;;;;21.05;9.40;;;;;;;18.83;76.27;101486.69;5003021;28;20034;-66
2022/10/25 09:27:34;;;;;;;21.60;10.02;;;;;;;19.62;72.32;101489.25;5004954;28;20048;-66
2022/10/25 09:30:07;;;;;;;26.60;10.60;;;;;;;18.99;72.76;101495.94;4997725;28;20057;-66
2022/10/25 09:32:36;;;;;;;23.20;9.77;;;;;;;18.13;73.86;101497.03;5001012;28;20026;-67
2022/10/25 09:35:04;;;;;;;18.42;7.97;;;;;;;18.52;73.15;101503.16;5001294;28;20036;-66
2022/10/25 09:37:31;;;;;;;;;;;;;;;19.23;77.44;101508.31;5003748;28;20030;-66
2022/10/25 09:40:05;;;;;;;16.50;7.50;;;;;;;18.49;72.42;101506.47;5004481;28;19913;-67
2022/10/25 09:42:42;;;;;;;16.05;7.43;;;;;;;17.84;75.87;101505.69;5006192;28;20060;-67
2022/10/25 09:45:32;;;;;;;16.07;7.40;;;;;;;17.47;78.54;101507.47;5003438;28;20084;-67
2022/10/25 09:48:10;;;;;;;16.02;7.35;;;;;;;17.15;79.32;101510.16;4999098;28;20029;-67
2022/10/25 09:50:54;;;;;;;;;;;;;;;17.80;79.88;101500.91;5003830;28;20029;-67
2022/10/25 09:53:19;;;;;;;17.80;7.55;;;;;;;18.60;74.03;101508.25;5015046;28;20287;-66
2022/10/25 09:55:51;;;;;;;16.23;6.72;;;;;;;18.32;73.67;101501.09;5006982;28;20041;-66
2022/10/25 09:58:31;;;;;;;16.77;7.53;;;;;;;17.76;77.29;101506.16;5002411;28;20204;-66
2022/10/25 10:01:14;;;;;;;17.77;6.90;;;;;;;17.24;77.83;101512.22;4997874;28;20038;-66
2022/10/25 10:03:40;;;;;;;16.13;7.75;;;;;;;16.81;79.73;101521.34;5002889;28;20038;-66
2022/10/25 10:06:20;;;;;;;15.95;6.40;;;;;;;17.27;79.15;101510.84;5003701;28;20084;-66
2022/10/25 10:08:55;;;;;;;14.38;6.25;;;;;;;17.26;78.77;101517.50;5004012;28;20495;-66
2022/10/25 10:11:21;;;;;;;17.05;5.93;;;;;;;16.81;79.68;101521.34;5005133;28;20038;-66
2022/10/25 10:13:52;;;;;;;16.27;6.78;;;;;;;16.55;82.56;101526.50;5004178;28;20057;-66
2022/10/25 10:16:40;;;;;;;18.45;7.22;;;;;;;16.34;84.02;101521.72;5005963;28;20034;-66
2022/10/25 10:19:17;;;;;;;17.30;7.20;;;;;;;16.02;85.74;101533.41;5003441;28;20038;-66
2022/10/25 10:21:56;;;;;;;18.42;6.90;;;;;;;15.77;86.80;101539.31;5019149;28;20022;-66
2022/10/25 10:24:32;;;;;;;16.48;6.82;;;;;;;15.63;88.92;101537.06;5003560;28;20049;-66
2022/10/25 10:26:59;;;;;;;20.17;6.85;;;;;;;15.54;89.40;101543.00;5005473;28;20068;-67
2022/10/25 10:29:30;;;;;;;16.50;5.90;;;;;;;15.47;89.39;101544.22;5003281;28;20076;-66
2022/10/25 10:31:59;;;;;;;14.18;6.05;;;;;;;15.29;89.48;101539.69;5008619;28;20049;-67
2022/10/25 10:34:28;;;;;;;15.98;5.97;;;;;;;15.25;90.45;101536.56;5005626;28;20030;-67
2022/10/25 10:37:11;;;;;;;15.02;5.95;;;;;;;15.31;90.37;101541.16;5008339;28;20774;-67
2022/10/25 10:40:09;;;;;;;14.70;6.28;;;;;;;15.38;90.95;101543.78;5008059;28;20065;-64
2022/10/25 10:42:41;;;;;;;43.28;12.95;;;;;;;15.39;90.93;101548.22;5000513;28;20061;-65
2022/10/25 10:45:14;;;;;;;15.90;6.53;;;;;;;15.39;90.91;101542.69;5004878;28;20029;-65
2022/10/25 10:47:39;;;;;;;14.52;5.90;;;;;;;15.47;90.60;101549.78;5007744;28;20450;-65
2022/10/25 10:50:20;;;;;;;19.83;7.70;;;;;;;15.63;90.78;101553.69;5008876;28;20065;-65
2022/10/25 10:52:56;;;;;;;19.13;5.80;;;;;;;15.66;89.68;101553.19;5009036;28;20276;-65
2022/10/25 10:55:31;;;;;;;17.88;4.80;;;;;;;15.85;89.70;101553.84;5008100;28;20041;-65
2022/10/25 10:58:01;;;;;;;16.15;4.53;;;;;;;16.05;87.27;101552.28;5007801;28;20075;-66
2022/10/25 11:00:29;;;;;;;16.30;4.78;;;;;;;16.33;85.02;101547.78;5007644;28;20034;-65
2022/10/25 11:02:54;;;;;;;10.80;4.45;;;;;;;16.93;81.37;101547.06;5009181;28;20026;-65
2022/10/25 11:05:27;;;;;;;13.63;4.43;;;;;;;17.30;80.31;101550.06;5008108;28;20337;-65
2022/10/25 11:07:59;;;;;;;10.80;4.00;;;;;;;17.27;79.75;101541.38;5007504;28;20413;-65
2022/10/25 11:10:36;;;;;;;14.75;4.43;;;;;;;17.31;79.26;101543.38;5008525;28;20065;-65
2022/10/25 11:13:13;;;;;;;14.77;4.32;;;;;;;18.06;75.34;101549.25;5008297;28;20042;-64
2022/10/25 11:15:59;;;;;;;9.55;3.30;;;;;;;17.97;75.69;101548.03;5001379;28;20719;-65
2022/10/25 11:19:03;;;;;;;11.95;3.78;;;;;;;17.47;77.05;101547.19;5007462;28;20084;-65
2022/10/25 11:21:58;;;;;;;12.40;3.53;;;;;;;17.24;78.33;101550.25;4992955;28;20044;-65
2022/10/25 11:24:23;;;;;;;10.63;3.28;;;;;;;17.93;75.61;101553.28;5007755;28;20025;-65
2022/10/25 11:26:54;;;;;;;8.77;3.23;;;;;;;19.22;72.21;101550.38;5004043;28;20040;-66